sensor_id;sensor_type;location;lat;lon;timestamp;temperature;humidity
48454;DHT22;34261;55.678;12.464;2022-11-20T02:49:50;2.60;99.90
48454;DHT22;34261;55.678;12.464;2022-11-20T03:36:14;2.60;99.90
48454;DHT22;34261;55.678;12.464;2022-11-20T03:38:40;2.60;99.90
48454;DHT22;34261;55.678;12.464;2022-11-20T03:41:09;2.50;99.90
48454;DHT22;34261;55.678;12.464;2022-11-20T03:43:35;2.50;99.90
48454;DHT22;34261;55.678;12.464;2022-11-20T03:46:01;2.50;99.90
48454;DHT22;34261;55.678;12.464;2022-11-20T03:48:27;2.50;99.90
48454;DHT22;34261;55.678;12.464;2022-11-20T03:50:53;2.50;99.90
48454;DHT22;34261;55.678;12.464;2022-11-20T03:53:31;2.50;99.90
48454;DHT22;34261;55.678;12.464;2022-11-20T04:55:28;2.20;99.90
48454;DHT22;34261;55.678;12.464;2022-11-20T05:13:26;2.10;99.90
48454;DHT22;34261;55.678;12.464;2022-11-20T05:15:52;2.10;99.90
48454;DHT22;34261;55.678;12.464;2022-11-20T05:18:17;2.00;99.90
48454;DHT22;34261;55.678;12.464;2022-11-20T05:20:43;2.00;99.90
48454;DHT22;34261;55.678;12.464;2022-11-20T05:23:08;2.00;99.90
48454;DHT22;34261;55.678;12.464;2022-11-20T05:41:13;2.10;99.90
48454;DHT22;34261;55.678;12.464;2022-11-20T05:43:40;2.10;99.90
48454;DHT22;34261;55.678;12.464;2022-11-20T05:46:06;2.10;99.90
48454;DHT22;34261;55.678;12.464;2022-11-20T06:06:40;2.00;99.90
48454;DHT22;34261;55.678;12.464;2022-11-20T06:09:06;2.00;99.90
48454;DHT22;34261;55.678;12.464;2022-11-20T06:11:31;2.00;99.90
48454;DHT22;34261;55.678;12.464;2022-11-20T06:13:57;2.00;99.90
48454;DHT22;34261;55.678;12.464;2022-11-20T06:16:22;2.00;99.90
48454;DHT22;34261;55.678;12.464;2022-11-20T06:18:48;1.90;99.90
48454;DHT22;34261;55.678;12.464;2022-11-20T06:21:18;1.90;99.90
48454;DHT22;34261;55.678;12.464;2022-11-20T06:23:44;1.90;99.90
48454;DHT22;34261;55.678;12.464;2022-11-20T06:26:11;2.00;99.90
48454;DHT22;34261;55.678;12.464;2022-11-20T06:28:37;1.90;99.90
48454;DHT22;34261;55.678;12.464;2022-11-20T06:31:03;1.90;99.90
48454;DHT22;34261;55.678;12.464;2022-11-20T06:33:29;1.90;99.90
48454;DHT22;34261;55.678;12.464;2022-11-20T06:35:58;1.90;99.90
48454;DHT22;34261;55.678;12.464;2022-11-20T06:38:24;1.90;99.90
48454;DHT22;34261;55.678;12.464;2022-11-20T06:40:50;1.90;99.90
48454;DHT22;34261;55.678;12.464;2022-11-20T06:43:15;1.90;99.90
48454;DHT22;34261;55.678;12.464;2022-11-20T06:45:41;1.90;99.90
48454;DHT22;34261;55.678;12.464;2022-11-20T06:48:07;1.90;99.90
48454;DHT22;34261;55.678;12.464;2022-11-20T06:50:32;1.90;99.90
48454;DHT22;34261;55.678;12.464;2022-11-20T06:53:00;1.90;99.90
48454;DHT22;34261;55.678;12.464;2022-11-20T06:55:26;1.90;99.90
48454;DHT22;34261;55.678;12.464;2022-11-20T06:57:51;1.90;99.90
48454;DHT22;34261;55.678;12.464;2022-11-20T07:00:17;1.90;99.90
48454;DHT22;34261;55.678;12.464;2022-11-20T07:02:42;1.90;99.90
48454;DHT22;34261;55.678;12.464;2022-11-20T07:05:09;1.90;99.90
48454;DHT22;34261;55.678;12.464;2022-11-20T07:07:35;1.90;99.90
48454;DHT22;34261;55.678;12.464;2022-11-20T07:10:00;2.00;99.90
48454;DHT22;34261;55.678;12.464;2022-11-20T07:15:01;2.00;99.90
48454;DHT22;34261;55.678;12.464;2022-11-20T07:17:27;2.00;99.90
48454;DHT22;34261;55.678;12.464;2022-11-20T07:19:52;2.00;99.90
48454;DHT22;34261;55.678;12.464;2022-11-20T07:22:18;2.00;99.90
48454;DHT22;34261;55.678;12.464;2022-11-20T07:24:47;2.00;99.90
48454;DHT22;34261;55.678;12.464;2022-11-20T07:27:12;2.00;99.90
48454;DHT22;34261;55.678;12.464;2022-11-20T07:29:38;2.00;99.90
48454;DHT22;34261;55.678;12.464;2022-11-20T18:21:12;1.20;99.90
48454;DHT22;34261;55.678;12.464;2022-11-20T18:23:37;1.20;99.90
48454;DHT22;34261;55.678;12.464;2022-11-20T18:26:03;1.20;99.90
48454;DHT22;34261;55.678;12.464;2022-11-20T18:28:28;1.20;99.90
48454;DHT22;34261;55.678;12.464;2022-11-20T18:30:54;1.20;99.90
48454;DHT22;34261;55.678;12.464;2022-11-20T18:33:20;1.20;99.90
48454;DHT22;34261;55.678;12.464;2022-11-20T18:35:45;1.20;99.90
48454;DHT22;34261;55.678;12.464;2022-11-20T18:38:11;1.10;99.90
48454;DHT22;34261;55.678;12.464;2022-11-20T18:40:38;1.20;99.90
48454;DHT22;34261;55.678;12.464;2022-11-20T18:43:42;1.10;99.90
48454;DHT22;34261;55.678;12.464;2022-11-20T18:46:27;1.10;99.90
48454;DHT22;34261;55.678;12.464;2022-11-20T18:48:53;1.10;99.90
48454;DHT22;34261;55.678;12.464;2022-11-20T18:51:20;1.00;99.90
48454;DHT22;34261;55.678;12.464;2022-11-20T18:53:56;1.00;99.90
48454;DHT22;34261;55.678;12.464;2022-11-20T18:56:22;1.00;99.90
48454;DHT22;34261;55.678;12.464;2022-11-20T18:58:51;0.90;99.90
48454;DHT22;34261;55.678;12.464;2022-11-20T19:01:23;1.00;99.90
48454;DHT22;34261;55.678;12.464;2022-11-20T19:04:23;0.90;99.90
48454;DHT22;34261;55.678;12.464;2022-11-20T19:07:02;0.90;99.90
48454;DHT22;34261;55.678;12.464;2022-11-20T19:09:30;0.90;99.90
48454;DHT22;34261;55.678;12.464;2022-11-20T19:12:01;0.80;99.90
48454;DHT22;34261;55.678;12.464;2022-11-20T19:14:33;0.90;99.90
48454;DHT22;34261;55.678;12.464;2022-11-20T19:17:04;0.80;99.90
48454;DHT22;34261;55.678;12.464;2022-11-20T19:19:32;0.70;99.90
48454;DHT22;34261;55.678;12.464;2022-11-20T19:22:02;0.70;99.90
48454;DHT22;34261;55.678;12.464;2022-11-20T19:24:32;0.60;99.90
48454;DHT22;34261;55.678;12.464;2022-11-20T19:27:00;0.60;99.90
48454;DHT22;34261;55.678;12.464;2022-11-20T19:29:26;0.60;99.90
48454;DHT22;34261;55.678;12.464;2022-11-20T19:31:53;0.60;99.90
48454;DHT22;34261;55.678;12.464;2022-11-20T19:34:18;0.60;99.90
48454;DHT22;34261;55.678;12.464;2022-11-20T19:36:44;0.60;99.90
48454;DHT22;34261;55.678;12.464;2022-11-20T19:39:10;0.60;99.90
48454;DHT22;34261;55.678;12.464;2022-11-20T19:41:37;0.60;99.90
48454;DHT22;34261;55.678;12.464;2022-11-20T19:44:04;0.60;99.90
48454;DHT22;34261;55.678;12.464;2022-11-20T19:46:30;0.50;99.90
48454;DHT22;34261;55.678;12.464;2022-11-20T19:48:56;0.50;99.90
48454;DHT22;34261;55.678;12.464;2022-11-20T19:51:23;0.50;99.90
48454;DHT22;34261;55.678;12.464;2022-11-20T19:53:49;0.40;99.90
48454;DHT22;34261;55.678;12.464;2022-11-20T19:56:15;0.40;99.90
48454;DHT22;34261;55.678;12.464;2022-11-20T19:58:41;0.40;99.90
48454;DHT22;34261;55.678;12.464;2022-11-20T20:01:07;0.40;99.90
48454;DHT22;34261;55.678;12.464;2022-11-20T20:03:33;0.40;99.90
48454;DHT22;34261;55.678;12.464;2022-11-20T20:06:06;0.40;99.90
48454;DHT22;34261;55.678;12.464;2022-11-20T20:08:32;0.40;99.90
48454;DHT22;34261;55.678;12.464;2022-11-20T20:10:58;0.30;99.90
48454;DHT22;34261;55.678;12.464;2022-11-20T20:13:24;0.30;99.90
48454;DHT22;34261;55.678;12.464;2022-11-20T20:15:50;0.30;99.90
48454;DHT22;34261;55.678;12.464;2022-11-20T20:18:16;0.30;99.90
48454;DHT22;34261;55.678;12.464;2022-11-20T20:20:42;0.30;99.90
48454;DHT22;34261;55.678;12.464;2022-11-20T20:23:08;0.30;99.90
48454;DHT22;34261;55.678;12.464;2022-11-20T20:25:34;0.30;99.90
48454;DHT22;34261;55.678;12.464;2022-11-20T20:28:02;0.30;99.90
48454;DHT22;34261;55.678;12.464;2022-11-20T20:30:28;0.30;99.90
48454;DHT22;34261;55.678;12.464;2022-11-20T20:32:55;0.40;99.90
48454;DHT22;34261;55.678;12.464;2022-11-20T20:35:21;0.40;99.90
48454;DHT22;34261;55.678;12.464;2022-11-20T20:37:47;0.40;99.90
48454;DHT22;34261;55.678;12.464;2022-11-20T20:40:12;0.40;99.90
48454;DHT22;34261;55.678;12.464;2022-11-20T20:42:38;0.40;99.90
48454;DHT22;34261;55.678;12.464;2022-11-20T20:45:03;0.40;99.90
48454;DHT22;34261;55.678;12.464;2022-11-20T20:47:33;0.40;99.90
48454;DHT22;34261;55.678;12.464;2022-11-20T20:49:59;0.40;99.90
48454;DHT22;34261;55.678;12.464;2022-11-20T20:52:25;0.50;99.90
48454;DHT22;34261;55.678;12.464;2022-11-20T20:54:53;0.40;99.90
48454;DHT22;34261;55.678;12.464;2022-11-20T20:57:19;0.50;99.90
48454;DHT22;34261;55.678;12.464;2022-11-20T20:59:48;0.50;99.90
48454;DHT22;34261;55.678;12.464;2022-11-20T21:02:14;0.60;99.90
48454;DHT22;34261;55.678;12.464;2022-11-20T21:04:40;0.60;99.90
48454;DHT22;34261;55.678;12.464;2022-11-20T21:07:05;0.70;99.90
48454;DHT22;34261;55.678;12.464;2022-11-20T21:09:31;0.60;99.90
48454;DHT22;34261;55.678;12.464;2022-11-20T21:11:56;0.70;99.90
48454;DHT22;34261;55.678;12.464;2022-11-20T21:14:22;0.80;99.90
48454;DHT22;34261;55.678;12.464;2022-11-20T21:16:48;0.80;99.90
48454;DHT22;34261;55.678;12.464;2022-11-20T21:19:13;0.80;99.90
48454;DHT22;34261;55.678;12.464;2022-11-20T21:21:39;0.90;99.90
48454;DHT22;34261;55.678;12.464;2022-11-20T21:24:25;0.90;99.90
48454;DHT22;34261;55.678;12.464;2022-11-20T21:26:51;0.90;99.90
48454;DHT22;34261;55.678;12.464;2022-11-20T21:29:18;0.90;99.90
48454;DHT22;34261;55.678;12.464;2022-11-20T21:31:43;0.90;99.90
48454;DHT22;34261;55.678;12.464;2022-11-20T21:34:10;1.00;99.90
48454;DHT22;34261;55.678;12.464;2022-11-20T21:36:36;1.00;99.90
48454;DHT22;34261;55.678;12.464;2022-11-20T21:39:02;1.00;99.90
48454;DHT22;34261;55.678;12.464;2022-11-20T21:41:28;0.90;99.90
48454;DHT22;34261;55.678;12.464;2022-11-20T21:43:54;0.90;99.90
48454;DHT22;34261;55.678;12.464;2022-11-20T21:46:20;0.90;99.90
48454;DHT22;34261;55.678;12.464;2022-11-20T21:48:46;0.90;99.90
48454;DHT22;34261;55.678;12.464;2022-11-20T21:51:16;0.90;99.90
48454;DHT22;34261;55.678;12.464;2022-11-20T21:53:42;0.90;99.90
48454;DHT22;34261;55.678;12.464;2022-11-20T21:56:08;0.90;99.90
48454;DHT22;34261;55.678;12.464;2022-11-20T21:58:35;0.90;99.90
48454;DHT22;34261;55.678;12.464;2022-11-20T22:01:07;0.90;99.90
48454;DHT22;34261;55.678;12.464;2022-11-20T22:03:33;1.00;99.90
48454;DHT22;34261;55.678;12.464;2022-11-20T22:05:58;1.00;99.90
48454;DHT22;34261;55.678;12.464;2022-11-20T22:08:24;1.00;99.90
48454;DHT22;34261;55.678;12.464;2022-11-20T22:10:57;1.10;99.90
48454;DHT22;34261;55.678;12.464;2022-11-20T22:13:23;1.10;99.90
48454;DHT22;34261;55.678;12.464;2022-11-20T22:16:08;1.10;99.90
48454;DHT22;34261;55.678;12.464;2022-11-20T22:18:34;1.20;99.90
48454;DHT22;34261;55.678;12.464;2022-11-20T22:21:03;1.30;99.90
48454;DHT22;34261;55.678;12.464;2022-11-20T22:23:30;1.30;99.90
48454;DHT22;34261;55.678;12.464;2022-11-20T22:25:59;1.30;99.90
48454;DHT22;34261;55.678;12.464;2022-11-20T22:28:25;1.30;99.90
48454;DHT22;34261;55.678;12.464;2022-11-20T22:30:51;1.40;99.90
48454;DHT22;34261;55.678;12.464;2022-11-20T22:33:17;1.50;99.90
48454;DHT22;34261;55.678;12.464;2022-11-20T22:35:42;1.50;99.90
48454;DHT22;34261;55.678;12.464;2022-11-20T22:38:08;1.50;99.90
48454;DHT22;34261;55.678;12.464;2022-11-20T22:40:33;1.60;99.90
48454;DHT22;34261;55.678;12.464;2022-11-20T22:42:59;1.60;99.90
48454;DHT22;34261;55.678;12.464;2022-11-20T22:45:24;1.60;99.90
48454;DHT22;34261;55.678;12.464;2022-11-20T22:47:50;1.70;99.90
48454;DHT22;34261;55.678;12.464;2022-11-20T22:50:15;1.70;99.90
48454;DHT22;34261;55.678;12.464;2022-11-20T22:52:41;1.70;99.90
48454;DHT22;34261;55.678;12.464;2022-11-20T22:55:07;1.70;99.90
48454;DHT22;34261;55.678;12.464;2022-11-20T22:57:32;1.70;99.90
48454;DHT22;34261;55.678;12.464;2022-11-20T22:59:58;1.80;99.90
48454;DHT22;34261;55.678;12.464;2022-11-20T23:02:23;1.80;99.90
48454;DHT22;34261;55.678;12.464;2022-11-20T23:04:50;1.80;99.90
48454;DHT22;34261;55.678;12.464;2022-11-20T23:07:15;1.80;99.90
48454;DHT22;34261;55.678;12.464;2022-11-20T23:09:41;1.90;99.90
48454;DHT22;34261;55.678;12.464;2022-11-20T23:12:06;1.80;99.90
48454;DHT22;34261;55.678;12.464;2022-11-20T23:14:32;1.80;99.90
48454;DHT22;34261;55.678;12.464;2022-11-20T23:16:58;1.70;99.90
48454;DHT22;34261;55.678;12.464;2022-11-20T23:19:23;1.70;99.90
48454;DHT22;34261;55.678;12.464;2022-11-20T23:21:49;1.70;99.90
48454;DHT22;34261;55.678;12.464;2022-11-20T23:24:14;1.60;99.90
48454;DHT22;34261;55.678;12.464;2022-11-20T23:26:40;1.50;99.90
48454;DHT22;34261;55.678;12.464;2022-11-20T23:29:06;1.40;99.90
48454;DHT22;34261;55.678;12.464;2022-11-20T23:31:32;1.50;99.90
48454;DHT22;34261;55.678;12.464;2022-11-20T23:33:58;1.40;99.90
48454;DHT22;34261;55.678;12.464;2022-11-20T23:36:24;1.40;99.90
48454;DHT22;34261;55.678;12.464;2022-11-20T23:38:50;1.20;99.90
48454;DHT22;34261;55.678;12.464;2022-11-20T23:41:15;1.30;99.90
48454;DHT22;34261;55.678;12.464;2022-11-20T23:43:41;1.30;99.90
48454;DHT22;34261;55.678;12.464;2022-11-20T23:46:06;1.20;99.90
48454;DHT22;34261;55.678;12.464;2022-11-20T23:48:33;1.20;99.90
48454;DHT22;34261;55.678;12.464;2022-11-20T23:50:59;1.10;99.90
48454;DHT22;34261;55.678;12.464;2022-11-20T23:53:25;1.00;99.90
48454;DHT22;34261;55.678;12.464;2022-11-20T23:55:58;1.00;99.90
48454;DHT22;34261;55.678;12.464;2022-11-20T23:58:25;1.00;99.90
